sensor_id;sensor_type;location;lat;lon;timestamp;P1;durP1;ratioP1;P2;durP2;ratioP2
11034;SDS011;5571;48.110;-1.706;2022-12-18T00:00:44;36.60;;;21.20;;
11034;SDS011;5571;48.110;-1.706;2022-12-18T00:03:12;31.93;;;18.97;;
11034;SDS011;5571;48.110;-1.706;2022-12-18T00:05:47;31.70;;;19.23;;
11034;SDS011;5571;48.110;-1.706;2022-12-18T00:08:14;30.87;;;18.67;;
11034;SDS011;5571;48.110;-1.706;2022-12-18T00:10:39;35.30;;;20.47;;
11034;SDS011;5571;48.110;-1.706;2022-12-18T00:13:05;32.03;;;19.60;;
11034;SDS011;5571;48.110;-1.706;2022-12-18T00:15:33;36.00;;;20.43;;
11034;SDS011;5571;48.110;-1.706;2022-12-18T00:18:03;30.93;;;19.00;;
11034;SDS011;5571;48.110;-1.706;2022-12-18T00:20:29;30.80;;;19.67;;
11034;SDS011;5571;48.110;-1.706;2022-12-18T00:22:55;31.60;;;19.93;;
11034;SDS011;5571;48.110;-1.706;2022-12-18T00:25:21;35.20;;;20.40;;
11034;SDS011;5571;48.110;-1.706;2022-12-18T00:27:47;31.27;;;19.97;;
11034;SDS011;5571;48.110;-1.706;2022-12-18T00:30:12;31.70;;;19.07;;
11034;SDS011;5571;48.110;-1.706;2022-12-18T00:32:38;32.13;;;19.47;;
11034;SDS011;5571;48.110;-1.706;2022-12-18T00:35:04;28.77;;;18.87;;
11034;SDS011;5571;48.110;-1.706;2022-12-18T00:37:31;33.10;;;19.87;;
11034;SDS011;5571;48.110;-1.706;2022-12-18T00:39:58;32.13;;;19.43;;
11034;SDS011;5571;48.110;-1.706;2022-12-18T00:42:23;30.73;;;19.03;;
11034;SDS011;5571;48.110;-1.706;2022-12-18T00:45:07;29.80;;;18.77;;
11034;SDS011;5571;48.110;-1.706;2022-12-18T00:47:33;31.13;;;19.50;;
11034;SDS011;5571;48.110;-1.706;2022-12-18T00:49:59;30.40;;;17.90;;
11034;SDS011;5571;48.110;-1.706;2022-12-18T00:52:25;31.23;;;18.87;;
11034;SDS011;5571;48.110;-1.706;2022-12-18T00:54:50;28.17;;;18.07;;
11034;SDS011;5571;48.110;-1.706;2022-12-18T00:57:16;33.63;;;20.30;;
11034;SDS011;5571;48.110;-1.706;2022-12-18T00:59:41;32.43;;;18.80;;
11034;SDS011;5571;48.110;-1.706;2022-12-18T01:02:07;29.20;;;17.00;;
11034;SDS011;5571;48.110;-1.706;2022-12-18T01:04:33;32.13;;;19.30;;
11034;SDS011;5571;48.110;-1.706;2022-12-18T01:06:58;29.40;;;17.90;;
11034;SDS011;5571;48.110;-1.706;2022-12-18T01:09:24;32.60;;;19.20;;
11034;SDS011;5571;48.110;-1.706;2022-12-18T01:11:49;31.43;;;19.63;;
11034;SDS011;5571;48.110;-1.706;2022-12-18T01:14:15;28.93;;;17.57;;
11034;SDS011;5571;48.110;-1.706;2022-12-18T01:16:41;28.97;;;18.50;;
11034;SDS011;5571;48.110;-1.706;2022-12-18T01:19:06;29.30;;;18.43;;
11034;SDS011;5571;48.110;-1.706;2022-12-18T01:21:32;34.00;;;18.97;;
11034;SDS011;5571;48.110;-1.706;2022-12-18T01:23:58;28.47;;;17.67;;
11034;SDS011;5571;48.110;-1.706;2022-12-18T01:26:24;30.83;;;19.30;;
11034;SDS011;5571;48.110;-1.706;2022-12-18T01:28:50;33.87;;;19.80;;
11034;SDS011;5571;48.110;-1.706;2022-12-18T01:31:18;30.17;;;17.97;;
11034;SDS011;5571;48.110;-1.706;2022-12-18T01:33:44;31.07;;;19.57;;
11034;SDS011;5571;48.110;-1.706;2022-12-18T01:36:26;31.93;;;18.90;;
11034;SDS011;5571;48.110;-1.706;2022-12-18T01:38:58;33.10;;;19.67;;
11034;SDS011;5571;48.110;-1.706;2022-12-18T01:41:27;37.93;;;21.30;;
11034;SDS011;5571;48.110;-1.706;2022-12-18T01:47:25;32.47;;;19.90;;
11034;SDS011;5571;48.110;-1.706;2022-12-18T01:50:13;31.83;;;18.60;;
11034;SDS011;5571;48.110;-1.706;2022-12-18T01:52:53;29.60;;;18.77;;
11034;SDS011;5571;48.110;-1.706;2022-12-18T01:55:35;36.80;;;19.80;;
11034;SDS011;5571;48.110;-1.706;2022-12-18T01:58:04;41.07;;;22.50;;
11034;SDS011;5571;48.110;-1.706;2022-12-18T02:00:30;35.07;;;21.97;;
11034;SDS011;5571;48.110;-1.706;2022-12-18T02:02:56;41.10;;;24.07;;
11034;SDS011;5571;48.110;-1.706;2022-12-18T02:08:17;38.83;;;22.83;;
11034;SDS011;5571;48.110;-1.706;2022-12-18T02:13:42;34.37;;;19.90;;
11034;SDS011;5571;48.110;-1.706;2022-12-18T02:16:25;37.23;;;22.10;;
11034;SDS011;5571;48.110;-1.706;2022-12-18T02:18:55;32.70;;;19.47;;
11034;SDS011;5571;48.110;-1.706;2022-12-18T02:21:29;32.10;;;20.60;;
11034;SDS011;5571;48.110;-1.706;2022-12-18T02:24:18;37.03;;;21.80;;
11034;SDS011;5571;48.110;-1.706;2022-12-18T02:27:05;31.93;;;19.53;;
11034;SDS011;5571;48.110;-1.706;2022-12-18T02:29:37;35.80;;;20.07;;
11034;SDS011;5571;48.110;-1.706;2022-12-18T02:32:10;32.13;;;19.43;;
11034;SDS011;5571;48.110;-1.706;2022-12-18T02:34:40;32.93;;;18.93;;
11034;SDS011;5571;48.110;-1.706;2022-12-18T02:37:07;32.77;;;19.10;;
11034;SDS011;5571;48.110;-1.706;2022-12-18T02:39:37;33.83;;;19.00;;
11034;SDS011;5571;48.110;-1.706;2022-12-18T02:42:05;29.17;;;18.57;;
11034;SDS011;5571;48.110;-1.706;2022-12-18T02:44:33;32.43;;;18.60;;
11034;SDS011;5571;48.110;-1.706;2022-12-18T02:47:11;29.07;;;17.83;;
11034;SDS011;5571;48.110;-1.706;2022-12-18T02:57:49;31.60;;;19.20;;
11034;SDS011;5571;48.110;-1.706;2022-12-18T03:00:52;34.17;;;19.13;;
11034;SDS011;5571;48.110;-1.706;2022-12-18T03:03:52;31.60;;;19.20;;
11034;SDS011;5571;48.110;-1.706;2022-12-18T03:06:27;37.63;;;19.13;;
11034;SDS011;5571;48.110;-1.706;2022-12-18T03:08:58;33.90;;;19.10;;
11034;SDS011;5571;48.110;-1.706;2022-12-18T03:11:28;31.60;;;18.27;;
11034;SDS011;5571;48.110;-1.706;2022-12-18T03:14:16;29.90;;;17.57;;
11034;SDS011;5571;48.110;-1.706;2022-12-18T03:16:44;29.20;;;17.83;;
11034;SDS011;5571;48.110;-1.706;2022-12-18T03:19:15;29.60;;;18.37;;
11034;SDS011;5571;48.110;-1.706;2022-12-18T03:21:45;32.17;;;18.77;;
11034;SDS011;5571;48.110;-1.706;2022-12-18T03:24:12;31.37;;;19.17;;
11034;SDS011;5571;48.110;-1.706;2022-12-18T03:26:42;28.90;;;18.47;;
11034;SDS011;5571;48.110;-1.706;2022-12-18T03:29:18;33.17;;;19.87;;
11034;SDS011;5571;48.110;-1.706;2022-12-18T03:31:58;30.17;;;18.03;;
11034;SDS011;5571;48.110;-1.706;2022-12-18T03:34:31;30.00;;;18.53;;
11034;SDS011;5571;48.110;-1.706;2022-12-18T03:36:59;30.53;;;17.63;;
11034;SDS011;5571;48.110;-1.706;2022-12-18T03:39:26;28.63;;;17.87;;
11034;SDS011;5571;48.110;-1.706;2022-12-18T03:44:27;28.30;;;17.87;;
11034;SDS011;5571;48.110;-1.706;2022-12-18T03:52:29;30.33;;;18.37;;
11034;SDS011;5571;48.110;-1.706;2022-12-18T03:55:00;28.43;;;17.77;;
11034;SDS011;5571;48.110;-1.706;2022-12-18T03:57:28;30.77;;;18.60;;
11034;SDS011;5571;48.110;-1.706;2022-12-18T04:00:07;27.27;;;17.13;;
11034;SDS011;5571;48.110;-1.706;2022-12-18T04:02:35;30.07;;;18.07;;
11034;SDS011;5571;48.110;-1.706;2022-12-18T04:05:05;27.93;;;17.37;;
11034;SDS011;5571;48.110;-1.706;2022-12-18T04:07:33;34.00;;;18.40;;
11034;SDS011;5571;48.110;-1.706;2022-12-18T04:09:59;28.97;;;17.23;;
11034;SDS011;5571;48.110;-1.706;2022-12-18T04:12:29;31.67;;;17.97;;
11034;SDS011;5571;48.110;-1.706;2022-12-18T04:14:55;29.10;;;17.70;;
11034;SDS011;5571;48.110;-1.706;2022-12-18T04:17:20;27.37;;;18.17;;
11034;SDS011;5571;48.110;-1.706;2022-12-18T04:19:46;28.73;;;17.47;;
11034;SDS011;5571;48.110;-1.706;2022-12-18T04:22:12;29.33;;;17.70;;
11034;SDS011;5571;48.110;-1.706;2022-12-18T04:24:38;30.33;;;18.57;;
11034;SDS011;5571;48.110;-1.706;2022-12-18T04:27:04;30.60;;;18.30;;
11034;SDS011;5571;48.110;-1.706;2022-12-18T04:29:30;28.50;;;16.80;;
11034;SDS011;5571;48.110;-1.706;2022-12-18T04:31:55;32.50;;;17.73;;
11034;SDS011;5571;48.110;-1.706;2022-12-18T04:34:21;27.97;;;17.87;;
11034;SDS011;5571;48.110;-1.706;2022-12-18T04:36:47;28.63;;;17.17;;
11034;SDS011;5571;48.110;-1.706;2022-12-18T04:39:13;32.30;;;18.13;;
11034;SDS011;5571;48.110;-1.706;2022-12-18T04:41:39;30.07;;;17.57;;
11034;SDS011;5571;48.110;-1.706;2022-12-18T04:44:04;33.17;;;18.13;;
11034;SDS011;5571;48.110;-1.706;2022-12-18T04:46:30;25.77;;;17.37;;
11034;SDS011;5571;48.110;-1.706;2022-12-18T04:48:56;25.77;;;17.03;;
11034;SDS011;5571;48.110;-1.706;2022-12-18T04:51:21;27.73;;;17.67;;
11034;SDS011;5571;48.110;-1.706;2022-12-18T04:53:47;29.03;;;17.40;;
11034;SDS011;5571;48.110;-1.706;2022-12-18T04:56:14;28.50;;;17.73;;
11034;SDS011;5571;48.110;-1.706;2022-12-18T04:58:40;31.27;;;17.80;;
11034;SDS011;5571;48.110;-1.706;2022-12-18T05:01:07;27.77;;;17.87;;
11034;SDS011;5571;48.110;-1.706;2022-12-18T05:03:33;29.23;;;17.43;;
11034;SDS011;5571;48.110;-1.706;2022-12-18T05:06:00;28.40;;;17.60;;
11034;SDS011;5571;48.110;-1.706;2022-12-18T05:08:25;31.40;;;18.87;;
11034;SDS011;5571;48.110;-1.706;2022-12-18T05:13:43;25.70;;;17.03;;
11034;SDS011;5571;48.110;-1.706;2022-12-18T05:16:10;29.03;;;17.97;;
11034;SDS011;5571;48.110;-1.706;2022-12-18T05:18:36;28.90;;;17.73;;
11034;SDS011;5571;48.110;-1.706;2022-12-18T05:21:02;27.23;;;17.13;;
11034;SDS011;5571;48.110;-1.706;2022-12-18T05:23:28;28.10;;;17.70;;
11034;SDS011;5571;48.110;-1.706;2022-12-18T05:25:55;27.97;;;17.70;;
11034;SDS011;5571;48.110;-1.706;2022-12-18T05:28:26;26.50;;;16.30;;
11034;SDS011;5571;48.110;-1.706;2022-12-18T05:30:55;27.80;;;17.60;;
11034;SDS011;5571;48.110;-1.706;2022-12-18T05:33:23;29.70;;;17.23;;
11034;SDS011;5571;48.110;-1.706;2022-12-18T05:35:53;26.13;;;17.07;;
11034;SDS011;5571;48.110;-1.706;2022-12-18T05:38:21;27.07;;;17.10;;
11034;SDS011;5571;48.110;-1.706;2022-12-18T05:40:48;25.67;;;17.50;;
11034;SDS011;5571;48.110;-1.706;2022-12-18T05:43:14;27.40;;;17.80;;
11034;SDS011;5571;48.110;-1.706;2022-12-18T05:45:40;29.37;;;17.73;;
11034;SDS011;5571;48.110;-1.706;2022-12-18T05:48:07;27.47;;;17.40;;
11034;SDS011;5571;48.110;-1.706;2022-12-18T05:50:34;29.73;;;18.13;;
11034;SDS011;5571;48.110;-1.706;2022-12-18T05:53:01;26.47;;;16.83;;
11034;SDS011;5571;48.110;-1.706;2022-12-18T05:55:27;28.77;;;17.90;;
11034;SDS011;5571;48.110;-1.706;2022-12-18T05:57:52;26.97;;;16.90;;
11034;SDS011;5571;48.110;-1.706;2022-12-18T06:00:18;30.13;;;18.07;;
11034;SDS011;5571;48.110;-1.706;2022-12-18T06:02:46;27.07;;;17.23;;
11034;SDS011;5571;48.110;-1.706;2022-12-18T06:05:12;26.87;;;16.83;;
11034;SDS011;5571;48.110;-1.706;2022-12-18T06:07:37;28.23;;;16.83;;
11034;SDS011;5571;48.110;-1.706;2022-12-18T06:10:03;26.97;;;17.67;;
11034;SDS011;5571;48.110;-1.706;2022-12-18T06:12:29;27.73;;;16.87;;
11034;SDS011;5571;48.110;-1.706;2022-12-18T06:14:55;27.10;;;16.67;;
11034;SDS011;5571;48.110;-1.706;2022-12-18T06:17:21;25.60;;;17.07;;
11034;SDS011;5571;48.110;-1.706;2022-12-18T06:19:46;26.17;;;16.03;;
11034;SDS011;5571;48.110;-1.706;2022-12-18T06:22:12;27.17;;;16.77;;
11034;SDS011;5571;48.110;-1.706;2022-12-18T06:24:38;27.83;;;16.40;;
11034;SDS011;5571;48.110;-1.706;2022-12-18T06:27:03;26.67;;;16.90;;
11034;SDS011;5571;48.110;-1.706;2022-12-18T06:29:29;27.87;;;16.87;;
11034;SDS011;5571;48.110;-1.706;2022-12-18T06:31:54;29.07;;;17.70;;
11034;SDS011;5571;48.110;-1.706;2022-12-18T06:34:20;24.97;;;15.50;;
11034;SDS011;5571;48.110;-1.706;2022-12-18T06:36:46;28.67;;;17.13;;
11034;SDS011;5571;48.110;-1.706;2022-12-18T06:39:11;27.13;;;17.20;;
11034;SDS011;5571;48.110;-1.706;2022-12-18T06:41:37;27.13;;;16.80;;
11034;SDS011;5571;48.110;-1.706;2022-12-18T06:44:03;26.03;;;16.47;;
11034;SDS011;5571;48.110;-1.706;2022-12-18T06:46:28;27.90;;;17.00;;
11034;SDS011;5571;48.110;-1.706;2022-12-18T06:48:54;31.77;;;17.43;;
11034;SDS011;5571;48.110;-1.706;2022-12-18T06:51:20;28.73;;;16.87;;
11034;SDS011;5571;48.110;-1.706;2022-12-18T06:53:48;27.60;;;17.70;;
11034;SDS011;5571;48.110;-1.706;2022-12-18T06:56:13;29.37;;;17.23;;
11034;SDS011;5571;48.110;-1.706;2022-12-18T06:58:39;28.30;;;17.63;;
11034;SDS011;5571;48.110;-1.706;2022-12-18T07:01:05;27.53;;;16.63;;
11034;SDS011;5571;48.110;-1.706;2022-12-18T07:03:33;28.67;;;17.17;;
11034;SDS011;5571;48.110;-1.706;2022-12-18T07:05:59;27.30;;;17.80;;
11034;SDS011;5571;48.110;-1.706;2022-12-18T07:08:25;28.90;;;17.33;;
11034;SDS011;5571;48.110;-1.706;2022-12-18T07:10:51;26.73;;;17.33;;
11034;SDS011;5571;48.110;-1.706;2022-12-18T07:13:16;29.43;;;18.33;;
11034;SDS011;5571;48.110;-1.706;2022-12-18T07:15:43;27.97;;;17.13;;
11034;SDS011;5571;48.110;-1.706;2022-12-18T07:18:08;27.17;;;17.57;;
11034;SDS011;5571;48.110;-1.706;2022-12-18T07:20:34;28.30;;;17.03;;
11034;SDS011;5571;48.110;-1.706;2022-12-18T07:23:03;29.20;;;18.03;;
11034;SDS011;5571;48.110;-1.706;2022-12-18T07:25:30;31.37;;;18.43;;
11034;SDS011;5571;48.110;-1.706;2022-12-18T07:28:00;27.47;;;17.57;;
11034;SDS011;5571;48.110;-1.706;2022-12-18T07:30:25;31.63;;;17.50;;
11034;SDS011;5571;48.110;-1.706;2022-12-18T07:32:51;27.80;;;17.73;;
11034;SDS011;5571;48.110;-1.706;2022-12-18T07:35:17;25.17;;;17.40;;
11034;SDS011;5571;48.110;-1.706;2022-12-18T07:37:42;31.57;;;18.23;;
11034;SDS011;5571;48.110;-1.706;2022-12-18T07:40:08;28.03;;;16.57;;
11034;SDS011;5571;48.110;-1.706;2022-12-18T07:42:34;27.83;;;17.53;;
11034;SDS011;5571;48.110;-1.706;2022-12-18T07:45:01;33.50;;;19.73;;
11034;SDS011;5571;48.110;-1.706;2022-12-18T07:47:27;31.17;;;19.67;;
11034;SDS011;5571;48.110;-1.706;2022-12-18T07:49:53;30.17;;;18.60;;
11034;SDS011;5571;48.110;-1.706;2022-12-18T07:52:19;29.23;;;18.00;;
11034;SDS011;5571;48.110;-1.706;2022-12-18T07:54:45;29.20;;;18.33;;
11034;SDS011;5571;48.110;-1.706;2022-12-18T07:57:13;28.27;;;17.93;;
11034;SDS011;5571;48.110;-1.706;2022-12-18T07:59:40;29.50;;;18.13;;
11034;SDS011;5571;48.110;-1.706;2022-12-18T08:02:05;28.57;;;17.37;;
11034;SDS011;5571;48.110;-1.706;2022-12-18T08:04:31;30.33;;;19.27;;
11034;SDS011;5571;48.110;-1.706;2022-12-18T08:06:56;27.77;;;18.03;;
11034;SDS011;5571;48.110;-1.706;2022-12-18T08:09:22;30.90;;;18.37;;
11034;SDS011;5571;48.110;-1.706;2022-12-18T08:11:48;30.23;;;17.80;;
11034;SDS011;5571;48.110;-1.706;2022-12-18T08:14:13;28.23;;;18.33;;
11034;SDS011;5571;48.110;-1.706;2022-12-18T08:16:39;29.77;;;18.57;;
11034;SDS011;5571;48.110;-1.706;2022-12-18T08:19:05;36.57;;;20.43;;
11034;SDS011;5571;48.110;-1.706;2022-12-18T08:21:31;32.60;;;19.50;;
11034;SDS011;5571;48.110;-1.706;2022-12-18T08:23:58;35.20;;;19.57;;
11034;SDS011;5571;48.110;-1.706;2022-12-18T08:26:25;33.53;;;19.90;;
11034;SDS011;5571;48.110;-1.706;2022-12-18T08:28:53;28.70;;;19.17;;
11034;SDS011;5571;48.110;-1.706;2022-12-18T08:31:20;32.30;;;19.80;;
11034;SDS011;5571;48.110;-1.706;2022-12-18T08:33:50;35.53;;;20.00;;
11034;SDS011;5571;48.110;-1.706;2022-12-18T08:36:17;30.87;;;19.43;;
11034;SDS011;5571;48.110;-1.706;2022-12-18T08:38:44;33.03;;;20.33;;
11034;SDS011;5571;48.110;-1.706;2022-12-18T08:41:11;34.37;;;19.97;;
11034;SDS011;5571;48.110;-1.706;2022-12-18T08:43:38;31.37;;;19.57;;
11034;SDS011;5571;48.110;-1.706;2022-12-18T08:46:23;34.07;;;20.93;;
11034;SDS011;5571;48.110;-1.706;2022-12-18T08:48:51;35.00;;;21.17;;
11034;SDS011;5571;48.110;-1.706;2022-12-18T08:51:18;33.57;;;20.20;;
11034;SDS011;5571;48.110;-1.706;2022-12-18T08:53:44;38.03;;;20.70;;
11034;SDS011;5571;48.110;-1.706;2022-12-18T08:56:10;33.33;;;21.20;;
11034;SDS011;5571;48.110;-1.706;2022-12-18T08:58:36;35.23;;;20.43;;
11034;SDS011;5571;48.110;-1.706;2022-12-18T09:01:06;32.93;;;19.50;;
11034;SDS011;5571;48.110;-1.706;2022-12-18T09:03:37;36.90;;;20.33;;
11034;SDS011;5571;48.110;-1.706;2022-12-18T09:06:03;34.23;;;20.70;;
11034;SDS011;5571;48.110;-1.706;2022-12-18T09:08:30;35.47;;;21.30;;
11034;SDS011;5571;48.110;-1.706;2022-12-18T09:10:55;33.27;;;20.27;;
11034;SDS011;5571;48.110;-1.706;2022-12-18T09:13:22;35.23;;;22.30;;
11034;SDS011;5571;48.110;-1.706;2022-12-18T09:15:49;37.50;;;21.33;;
11034;SDS011;5571;48.110;-1.706;2022-12-18T09:18:19;34.17;;;20.63;;
11034;SDS011;5571;48.110;-1.706;2022-12-18T09:20:46;41.20;;;22.03;;
11034;SDS011;5571;48.110;-1.706;2022-12-18T09:23:12;36.13;;;21.17;;
11034;SDS011;5571;48.110;-1.706;2022-12-18T09:25:38;42.60;;;22.67;;
11034;SDS011;5571;48.110;-1.706;2022-12-18T09:28:12;45.10;;;22.83;;
11034;SDS011;5571;48.110;-1.706;2022-12-18T09:30:43;41.07;;;23.20;;
11034;SDS011;5571;48.110;-1.706;2022-12-18T09:33:10;39.97;;;23.50;;
11034;SDS011;5571;48.110;-1.706;2022-12-18T09:35:37;41.87;;;23.03;;
11034;SDS011;5571;48.110;-1.706;2022-12-18T09:38:04;44.27;;;23.67;;
11034;SDS011;5571;48.110;-1.706;2022-12-18T09:40:34;41.03;;;23.60;;
11034;SDS011;5571;48.110;-1.706;2022-12-18T09:43:04;45.97;;;23.90;;
11034;SDS011;5571;48.110;-1.706;2022-12-18T09:45:40;41.93;;;23.83;;
11034;SDS011;5571;48.110;-1.706;2022-12-18T09:48:17;48.47;;;26.07;;
11034;SDS011;5571;48.110;-1.706;2022-12-18T09:50:50;45.00;;;24.87;;
11034;SDS011;5571;48.110;-1.706;2022-12-18T09:53:21;49.37;;;24.63;;
11034;SDS011;5571;48.110;-1.706;2022-12-18T09:55:50;50.42;;;31.48;;
11034;SDS011;5571;48.110;-1.706;2022-12-18T09:58:26;42.40;;;25.87;;
11034;SDS011;5571;48.110;-1.706;2022-12-18T10:01:16;43.63;;;23.43;;
11034;SDS011;5571;48.110;-1.706;2022-12-18T10:03:46;41.00;;;24.03;;
11034;SDS011;5571;48.110;-1.706;2022-12-18T10:11:32;44.47;;;23.50;;
11034;SDS011;5571;48.110;-1.706;2022-12-18T10:14:10;45.80;;;23.70;;
11034;SDS011;5571;48.110;-1.706;2022-12-18T10:19:41;45.43;;;24.57;;
11034;SDS011;5571;48.110;-1.706;2022-12-18T10:25:13;44.83;;;24.10;;
11034;SDS011;5571;48.110;-1.706;2022-12-18T10:28:07;47.43;;;24.70;;
11034;SDS011;5571;48.110;-1.706;2022-12-18T10:30:35;45.33;;;24.87;;
11034;SDS011;5571;48.110;-1.706;2022-12-18T10:33:04;47.57;;;23.97;;
11034;SDS011;5571;48.110;-1.706;2022-12-18T10:35:29;45.53;;;25.03;;
11034;SDS011;5571;48.110;-1.706;2022-12-18T10:37:59;47.73;;;25.27;;
11034;SDS011;5571;48.110;-1.706;2022-12-18T10:40:32;49.10;;;25.23;;
11034;SDS011;5571;48.110;-1.706;2022-12-18T10:43:14;57.10;;;25.80;;
11034;SDS011;5571;48.110;-1.706;2022-12-18T10:45:44;54.30;;;25.13;;
11034;SDS011;5571;48.110;-1.706;2022-12-18T10:48:27;51.03;;;24.93;;
11034;SDS011;5571;48.110;-1.706;2022-12-18T10:50:54;44.73;;;23.37;;
11034;SDS011;5571;48.110;-1.706;2022-12-18T10:53:22;47.77;;;24.93;;
11034;SDS011;5571;48.110;-1.706;2022-12-18T10:55:51;48.03;;;24.43;;
11034;SDS011;5571;48.110;-1.706;2022-12-18T10:58:21;49.50;;;26.40;;
11034;SDS011;5571;48.110;-1.706;2022-12-18T11:01:01;56.80;;;27.23;;
11034;SDS011;5571;48.110;-1.706;2022-12-18T11:03:45;47.23;;;24.93;;
11034;SDS011;5571;48.110;-1.706;2022-12-18T11:06:23;50.27;;;25.57;;
11034;SDS011;5571;48.110;-1.706;2022-12-18T11:09:08;51.97;;;25.97;;
11034;SDS011;5571;48.110;-1.706;2022-12-18T11:11:51;45.40;;;24.43;;
11034;SDS011;5571;48.110;-1.706;2022-12-18T11:17:16;50.93;;;24.37;;
11034;SDS011;5571;48.110;-1.706;2022-12-18T11:19:58;46.87;;;24.77;;
11034;SDS011;5571;48.110;-1.706;2022-12-18T11:22:28;48.67;;;25.80;;
11034;SDS011;5571;48.110;-1.706;2022-12-18T11:25:02;44.80;;;24.67;;
11034;SDS011;5571;48.110;-1.706;2022-12-18T11:27:51;40.73;;;22.93;;
11034;SDS011;5571;48.110;-1.706;2022-12-18T11:32:45;36.87;;;23.10;;
11034;SDS011;5571;48.110;-1.706;2022-12-18T11:35:17;52.30;;;32.30;;
11034;SDS011;5571;48.110;-1.706;2022-12-18T11:40:56;39.67;;;22.77;;
11034;SDS011;5571;48.110;-1.706;2022-12-18T11:43:28;47.95;;;30.83;;
11034;SDS011;5571;48.110;-1.706;2022-12-18T11:46:08;43.40;;;25.53;;
11034;SDS011;5571;48.110;-1.706;2022-12-18T11:51:49;39.90;;;22.77;;
11034;SDS011;5571;48.110;-1.706;2022-12-18T11:54:18;37.03;;;22.03;;
11034;SDS011;5571;48.110;-1.706;2022-12-18T12:02:16;37.20;;;23.50;;
11034;SDS011;5571;48.110;-1.706;2022-12-18T12:12:26;37.83;;;22.53;;
11034;SDS011;5571;48.110;-1.706;2022-12-18T12:15:13;38.60;;;22.63;;
11034;SDS011;5571;48.110;-1.706;2022-12-18T12:18:08;41.00;;;24.57;;
11034;SDS011;5571;48.110;-1.706;2022-12-18T12:21:05;42.30;;;24.70;;
11034;SDS011;5571;48.110;-1.706;2022-12-18T12:23:41;39.27;;;24.13;;
11034;SDS011;5571;48.110;-1.706;2022-12-18T12:26:17;39.40;;;23.93;;
11034;SDS011;5571;48.110;-1.706;2022-12-18T12:38:00;37.13;;;23.47;;
11034;SDS011;5571;48.110;-1.706;2022-12-18T12:40:27;40.83;;;23.27;;
11034;SDS011;5571;48.110;-1.706;2022-12-18T12:43:10;43.03;;;23.60;;
11034;SDS011;5571;48.110;-1.706;2022-12-18T12:48:33;42.60;;;25.07;;
11034;SDS011;5571;48.110;-1.706;2022-12-18T12:51:10;38.03;;;24.57;;
11034;SDS011;5571;48.110;-1.706;2022-12-18T12:53:46;40.33;;;24.70;;
11034;SDS011;5571;48.110;-1.706;2022-12-18T12:56:15;37.53;;;23.70;;
11034;SDS011;5571;48.110;-1.706;2022-12-18T12:58:51;35.37;;;23.77;;
11034;SDS011;5571;48.110;-1.706;2022-12-18T13:01:43;36.17;;;24.10;;
11034;SDS011;5571;48.110;-1.706;2022-12-18T13:07:20;39.87;;;24.83;;
11034;SDS011;5571;48.110;-1.706;2022-12-18T13:12:51;39.33;;;24.63;;
11034;SDS011;5571;48.110;-1.706;2022-12-18T13:15:43;43.33;;;25.47;;
11034;SDS011;5571;48.110;-1.706;2022-12-18T13:18:18;38.57;;;23.73;;
11034;SDS011;5571;48.110;-1.706;2022-12-18T13:20:47;38.77;;;23.93;;
11034;SDS011;5571;48.110;-1.706;2022-12-18T13:23:27;42.00;;;25.67;;
11034;SDS011;5571;48.110;-1.706;2022-12-18T13:36:41;42.17;;;26.30;;
11034;SDS011;5571;48.110;-1.706;2022-12-18T13:39:11;41.20;;;25.30;;
11034;SDS011;5571;48.110;-1.706;2022-12-18T13:41:43;37.90;;;24.67;;
11034;SDS011;5571;48.110;-1.706;2022-12-18T13:47:05;40.37;;;26.07;;
11034;SDS011;5571;48.110;-1.706;2022-12-18T13:49:50;40.37;;;26.27;;
11034;SDS011;5571;48.110;-1.706;2022-12-18T13:54:47;44.43;;;25.87;;
11034;SDS011;5571;48.110;-1.706;2022-12-18T13:57:39;40.03;;;25.10;;
11034;SDS011;5571;48.110;-1.706;2022-12-18T14:02:50;42.17;;;24.40;;
11034;SDS011;5571;48.110;-1.706;2022-12-18T14:05:23;47.03;;;28.50;;
11034;SDS011;5571;48.110;-1.706;2022-12-18T14:07:55;40.63;;;26.13;;
11034;SDS011;5571;48.110;-1.706;2022-12-18T14:10:25;46.23;;;27.77;;
11034;SDS011;5571;48.110;-1.706;2022-12-18T14:12:51;45.10;;;26.67;;
11034;SDS011;5571;48.110;-1.706;2022-12-18T14:20:24;39.70;;;25.93;;
11034;SDS011;5571;48.110;-1.706;2022-12-18T14:22:51;39.97;;;24.43;;
11034;SDS011;5571;48.110;-1.706;2022-12-18T14:25:18;40.50;;;24.10;;
11034;SDS011;5571;48.110;-1.706;2022-12-18T14:30:36;39.73;;;23.57;;
11034;SDS011;5571;48.110;-1.706;2022-12-18T14:33:05;36.87;;;24.13;;
11034;SDS011;5571;48.110;-1.706;2022-12-18T14:35:31;40.37;;;24.63;;
11034;SDS011;5571;48.110;-1.706;2022-12-18T14:38:09;44.73;;;25.23;;
11034;SDS011;5571;48.110;-1.706;2022-12-18T14:40:41;42.43;;;23.00;;
11034;SDS011;5571;48.110;-1.706;2022-12-18T14:43:10;48.10;;;24.90;;
11034;SDS011;5571;48.110;-1.706;2022-12-18T14:45:37;40.40;;;24.47;;
11034;SDS011;5571;48.110;-1.706;2022-12-18T14:48:19;39.97;;;23.37;;
11034;SDS011;5571;48.110;-1.706;2022-12-18T14:50:54;42.70;;;24.77;;
11034;SDS011;5571;48.110;-1.706;2022-12-18T14:53:34;39.37;;;24.90;;
11034;SDS011;5571;48.110;-1.706;2022-12-18T14:56:01;39.20;;;24.77;;
11034;SDS011;5571;48.110;-1.706;2022-12-18T14:58:28;42.33;;;25.03;;
11034;SDS011;5571;48.110;-1.706;2022-12-18T15:00:54;40.57;;;25.40;;
11034;SDS011;5571;48.110;-1.706;2022-12-18T15:03:20;46.73;;;28.33;;
11034;SDS011;5571;48.110;-1.706;2022-12-18T15:05:46;48.87;;;28.43;;
11034;SDS011;5571;48.110;-1.706;2022-12-18T15:08:27;47.17;;;28.13;;
11034;SDS011;5571;48.110;-1.706;2022-12-18T15:10:55;46.43;;;27.57;;
11034;SDS011;5571;48.110;-1.706;2022-12-18T15:13:22;42.10;;;25.50;;
11034;SDS011;5571;48.110;-1.706;2022-12-18T15:15:49;45.70;;;26.40;;
11034;SDS011;5571;48.110;-1.706;2022-12-18T15:18:16;41.53;;;27.30;;
11034;SDS011;5571;48.110;-1.706;2022-12-18T15:23:38;42.40;;;26.17;;
11034;SDS011;5571;48.110;-1.706;2022-12-18T15:26:11;43.37;;;26.63;;
11034;SDS011;5571;48.110;-1.706;2022-12-18T15:28:55;50.33;;;27.70;;
11034;SDS011;5571;48.110;-1.706;2022-12-18T15:36:21;38.23;;;25.97;;
11034;SDS011;5571;48.110;-1.706;2022-12-18T15:38:49;36.20;;;25.03;;
11034;SDS011;5571;48.110;-1.706;2022-12-18T15:41:19;41.10;;;26.53;;
11034;SDS011;5571;48.110;-1.706;2022-12-18T15:43:50;41.27;;;25.93;;
11034;SDS011;5571;48.110;-1.706;2022-12-18T15:46:24;40.73;;;24.87;;
11034;SDS011;5571;48.110;-1.706;2022-12-18T15:48:50;32.07;;;22.50;;
11034;SDS011;5571;48.110;-1.706;2022-12-18T15:51:21;36.43;;;23.27;;
11034;SDS011;5571;48.110;-1.706;2022-12-18T15:53:50;31.17;;;21.47;;
11034;SDS011;5571;48.110;-1.706;2022-12-18T15:56:18;36.23;;;21.03;;
11034;SDS011;5571;48.110;-1.706;2022-12-18T15:59:04;29.33;;;20.60;;
11034;SDS011;5571;48.110;-1.706;2022-12-18T16:01:38;25.47;;;18.03;;
11034;SDS011;5571;48.110;-1.706;2022-12-18T16:04:05;25.43;;;18.87;;
11034;SDS011;5571;48.110;-1.706;2022-12-18T16:06:30;29.57;;;18.80;;
11034;SDS011;5571;48.110;-1.706;2022-12-18T16:08:56;25.03;;;18.30;;
11034;SDS011;5571;48.110;-1.706;2022-12-18T16:16:42;23.13;;;17.47;;
11034;SDS011;5571;48.110;-1.706;2022-12-18T16:19:08;26.47;;;18.33;;
11034;SDS011;5571;48.110;-1.706;2022-12-18T16:21:34;22.57;;;16.50;;
11034;SDS011;5571;48.110;-1.706;2022-12-18T16:24:00;21.97;;;16.97;;
11034;SDS011;5571;48.110;-1.706;2022-12-18T16:26:26;23.67;;;16.63;;
11034;SDS011;5571;48.110;-1.706;2022-12-18T16:28:51;20.87;;;15.40;;
11034;SDS011;5571;48.110;-1.706;2022-12-18T16:31:18;22.20;;;15.87;;
11034;SDS011;5571;48.110;-1.706;2022-12-18T16:33:44;21.83;;;16.30;;
11034;SDS011;5571;48.110;-1.706;2022-12-18T16:36:09;19.37;;;14.77;;
11034;SDS011;5571;48.110;-1.706;2022-12-18T16:38:35;18.23;;;14.90;;